This is the latest recevied weather packets stored in our database for station/object IZ3ZOD-13. If no packets are shown the sender has not sent any weather packets the latest 10 day(s).
| Time | Temp. | Humidity | Pressure | Rain* | Wind** | Luminosity | Snow |
|---|---|---|---|---|---|---|---|
| 1777641604 | 20.56° C | 26% | 1026.8 hPa | 0 mm | - | - | - |
| 1777640403 | 20.56° C | 27% | 1026.9 hPa | 0 mm | - | - | - |
| 1777639443 | 20° C | 30% | 1027.2 hPa | 0 mm | - | - | - |
| 1777637044 | 18.89° C | 29% | 1027.3 hPa | 0 mm | - | - | - |
| 1777634403 | 18.33° C | 30% | 1028.1 hPa | 0 mm | - | - | - |
| 1777633204 | 18.33° C | 29% | 1028.2 hPa | 0 mm | - | - | - |
| 1777632484 | 18.33° C | 30% | 1028.3 hPa | 0 mm | - | - | - |
| 1777632244 | 17.78° C | 30% | 1028.5 hPa | 0 mm | - | - | - |
| 1777630563 | 17.22° C | 30% | 1028.4 hPa | 0 mm | - | - | - |
| 1777628884 | 17.78° C | 32% | 1028.7 hPa | 0 mm | - | - | - |
| 1777628644 | 17.22° C | 34% | 1028.7 hPa | 0 mm | - | - | - |
| 1777626483 | 17.78° C | 33% | 1028.8 hPa | 0 mm | - | - | - |
| 1777626243 | 16.67° C | 34% | 1028.8 hPa | 0 mm | - | - | - |
| 1777626003 | 16.67° C | 33% | 1028.9 hPa | 0 mm | - | - | - |
| 1777625417 | 16.67° C | 33% | 1028.6 hPa | 0 mm | - | - | - |
| 1777622163 | 16.11° C | 34% | 1028.5 hPa | 0 mm | - | - | - |
| 1777621683 | 15.56° C | 35% | 1028.5 hPa | 0 mm | - | - | - |
| 1777619523 | 15° C | 36% | 1028.3 hPa | 0 mm | - | - | - |
| 1777615816 | 13.33° C | 39% | 1027.9 hPa | 0 mm | - | - | - |
| 1777614137 | 12.78° C | 47% | 1027.7 hPa | 0 mm | - | - | - |
| 1777613896 | 12.78° C | 47% | 1027.6 hPa | 0 mm | - | - | - |
| 1777612323 | 12.22° C | 54% | 1027.3 hPa | 0 mm | - | - | - |
| 1777611844 | 12.22° C | 56% | 1027.4 hPa | 0 mm | - | - | - |
| 1777609443 | 8.89° C | 65% | 1027.1 hPa | 0 mm | - | - | - |
| 1777608243 | 10° C | 58% | 1027 hPa | 0 mm | - | - | - |
* Rain latest hour (hover to see other rain measurements)
** Current wind speed in m/s (hover to see current wind gust speed)